createdAt,value
2019-03-09T00:03:53.809Z,8.41
2019-03-09T00:06:24.365Z,8.37
2019-03-09T00:08:54.936Z,8.34
2019-03-09T00:11:25.361Z,8.18
2019-03-09T00:13:55.857Z,8.23
2019-03-09T00:16:26.393Z,8.21
2019-03-09T00:18:56.927Z,8.14
2019-03-09T00:21:27.460Z,8.04
2019-03-09T00:24:16.894Z,8.12
2019-03-09T00:27:06.274Z,8.10
2019-03-09T00:29:55.607Z,7.96
2019-03-09T00:32:27.448Z,8.01
2019-03-09T00:34:57.916Z,8.00
2019-03-09T00:37:30.135Z,7.92
2019-03-09T00:40:00.803Z,7.90
2019-03-09T00:42:31.238Z,7.97
2019-03-09T00:45:01.729Z,8.06
2019-03-09T00:47:32.229Z,7.85
2019-03-09T00:50:02.795Z,7.56
2019-03-09T00:52:33.313Z,7.75
2019-03-09T00:55:03.841Z,7.80
2019-03-09T00:57:34.280Z,7.77
2019-03-09T01:03:07.371Z,7.62
2019-03-09T01:05:37.838Z,7.54
2019-03-09T01:08:08.383Z,7.66
2019-03-09T01:10:38.887Z,7.58
2019-03-09T01:16:11.679Z,7.28
2019-03-09T01:18:42.186Z,7.12
2019-03-09T01:21:12.659Z,7.08
2019-03-09T01:23:43.139Z,7.13
2019-03-09T01:26:13.740Z,7.39
2019-03-09T01:28:44.199Z,7.48
2019-03-09T01:31:14.806Z,7.50
2019-03-09T01:33:45.235Z,7.66
2019-03-09T01:36:15.718Z,7.63
2019-03-09T01:38:46.207Z,7.59
2019-03-09T01:41:16.672Z,7.57
2019-03-09T01:43:47.172Z,7.47
2019-03-09T01:46:17.735Z,7.63
2019-03-09T01:48:48.207Z,7.76
2019-03-09T01:51:18.788Z,7.61
2019-03-09T01:53:49.297Z,7.60
2019-03-09T01:56:19.808Z,7.65
2019-03-09T01:58:50.237Z,7.57
2019-03-09T02:01:20.806Z,7.44
2019-03-09T02:03:51.351Z,7.37
2019-03-09T02:06:21.858Z,7.57
2019-03-09T02:08:52.379Z,7.58
2019-03-09T02:11:22.831Z,7.65
2019-03-09T02:13:53.258Z,7.63
2019-03-09T02:16:23.736Z,7.72
2019-03-09T02:19:14.454Z,7.76
2019-03-09T02:21:44.972Z,7.79
2019-03-09T02:24:34.849Z,7.69
2019-03-09T02:27:05.399Z,7.70
2019-03-09T02:29:35.936Z,7.83
2019-03-09T02:32:08.115Z,7.84
2019-03-09T02:34:38.578Z,7.89
2019-03-09T02:37:09.130Z,7.99
2019-03-09T02:39:58.421Z,7.89
2019-03-09T02:42:28.934Z,7.90
2019-03-09T02:44:59.483Z,7.84
2019-03-09T02:47:29.927Z,7.72
2019-03-09T02:50:00.496Z,7.67
2019-03-09T02:52:31.105Z,7.73
2019-03-09T02:55:01.606Z,7.64
2019-03-09T02:57:32.144Z,7.53
2019-03-09T03:00:02.745Z,7.46
2019-03-09T03:02:38.745Z,7.53
2019-03-09T03:05:09.333Z,7.50
2019-03-09T03:07:39.793Z,7.44
2019-03-09T03:10:29.641Z,7.44
2019-03-09T03:13:00.073Z,7.35
2019-03-09T03:15:49.888Z,7.21
2019-03-09T03:18:20.469Z,7.19
2019-03-09T03:20:50.912Z,7.15
2019-03-09T03:23:40.804Z,7.15
2019-03-09T03:26:11.242Z,7.35
2019-03-09T03:29:01.123Z,7.17
2019-03-09T03:31:31.551Z,7.23
2019-03-09T03:34:02.195Z,7.19
2019-03-09T03:36:52.035Z,7.21
2019-03-09T03:39:22.541Z,7.25
2019-03-09T03:42:12.397Z,7.28
2019-03-09T03:45:01.790Z,7.34
2019-03-09T03:47:32.293Z,7.24
2019-03-09T03:50:22.140Z,7.36
2019-03-09T03:53:13.083Z,7.41
2019-03-09T03:55:43.616Z,7.37
2019-03-09T03:58:33.458Z,7.34
2019-03-09T04:01:03.906Z,7.31
2019-03-09T04:03:34.426Z,7.24
2019-03-09T04:06:05.082Z,7.31
2019-03-09T04:08:35.605Z,7.30
2019-03-09T04:11:06.363Z,7.24
2019-03-09T04:17:02.843Z,7.11
2019-03-09T04:19:33.360Z,7.07
2019-03-09T04:22:03.835Z,7.11
2019-03-09T04:24:38.865Z,7.21
2019-03-09T04:27:09.334Z,7.12
2019-03-09T04:29:39.843Z,7.15
2019-03-09T04:32:10.404Z,7.12
2019-03-09T04:34:40.809Z,7.32
2019-03-09T04:37:30.682Z,7.26
2019-03-09T04:40:01.129Z,7.26
2019-03-09T04:42:31.657Z,7.20
2019-03-09T04:45:02.125Z,7.10
2019-03-09T04:47:32.611Z,7.04
2019-03-09T04:50:03.135Z,6.96
2019-03-09T04:52:33.686Z,6.83
2019-03-09T04:55:04.200Z,6.73
2019-03-09T04:57:34.728Z,6.66
2019-03-09T05:00:05.331Z,6.66
2019-03-09T05:02:35.830Z,6.64
2019-03-09T05:05:07.234Z,6.68
2019-03-09T05:07:59.138Z,6.71
2019-03-09T05:11:07.755Z,6.73
2019-03-09T05:14:16.257Z,6.78
2019-03-09T05:16:46.727Z,6.73
2019-03-09T05:19:17.160Z,6.80
2019-03-09T05:22:07.035Z,6.85
2019-03-09T05:24:37.518Z,6.88
2019-03-09T05:27:08.005Z,6.98
2019-03-09T05:29:57.810Z,6.98
2019-03-09T05:32:47.664Z,6.98
2019-03-09T05:35:18.091Z,6.97
2019-03-09T05:37:48.647Z,7.01
2019-03-09T05:40:19.072Z,7.07
2019-03-09T05:43:09.030Z,7.15
2019-03-09T05:45:39.568Z,7.25
2019-03-09T05:48:10.083Z,7.15
2019-03-09T05:50:42.164Z,7.10
2019-03-09T05:53:31.777Z,7.20
2019-03-09T05:56:21.635Z,7.24
2019-03-09T05:58:52.134Z,7.33
2019-03-09T06:01:22.538Z,7.43
2019-03-09T06:03:53.064Z,7.42
2019-03-09T06:06:23.505Z,7.50
2019-03-09T06:08:53.975Z,7.62
2019-03-09T06:11:43.793Z,7.63
2019-03-09T06:14:14.252Z,7.67
2019-03-09T06:16:44.688Z,7.70
2019-03-09T06:19:34.550Z,7.72
2019-03-09T06:22:04.977Z,7.74
2019-03-09T06:24:35.429Z,7.88
2019-03-09T06:27:05.883Z,7.95
2019-03-09T06:29:55.702Z,8.00
2019-03-09T06:33:23.551Z,8.02
2019-03-09T06:36:17.529Z,8.11
2019-03-09T06:42:24.536Z,8.28
2019-03-09T06:44:54.984Z,8.38
2019-03-09T06:47:44.823Z,8.55
2019-03-09T06:50:27.178Z,8.57
2019-03-09T06:52:57.660Z,8.76
2019-03-09T06:55:47.512Z,8.80
2019-03-09T06:58:17.976Z,8.81
2019-03-09T07:01:26.858Z,8.72
2019-03-09T07:03:57.320Z,8.80
2019-03-09T07:06:27.804Z,8.79
2019-03-09T07:08:58.340Z,8.88
2019-03-09T07:11:34.623Z,8.96
2019-03-09T07:14:43.169Z,9.09
2019-03-09T07:17:32.682Z,9.21
2019-03-09T07:20:12.197Z,9.35
2019-03-09T07:22:46.420Z,9.40
2019-03-09T07:25:16.839Z,9.49
2019-03-09T07:28:08.500Z,9.51
2019-03-09T07:30:38.929Z,9.59
2019-03-09T07:33:28.770Z,9.53
2019-03-09T07:35:59.180Z,9.48
2019-03-09T07:38:29.662Z,9.43
2019-03-09T07:41:19.546Z,9.41
2019-03-09T07:43:50.097Z,9.39
2019-03-09T07:46:20.601Z,9.34
2019-03-09T07:49:10.482Z,9.41
2019-03-09T07:51:40.936Z,9.40
2019-03-09T07:54:11.476Z,9.33
2019-03-09T07:56:41.951Z,9.26
2019-03-09T07:59:12.393Z,9.23
2019-03-09T08:01:42.817Z,9.23
2019-03-09T08:04:32.664Z,9.28
2019-03-09T08:07:03.088Z,9.36
2019-03-09T08:09:33.713Z,9.44
2019-03-09T08:12:04.140Z,9.55
2019-03-09T08:14:34.731Z,9.73
2019-03-09T08:17:05.191Z,9.84
2019-03-09T08:19:55.062Z,10.05
2019-03-09T08:22:25.485Z,10.21
2019-03-09T08:24:56.058Z,10.51
2019-03-09T08:27:45.877Z,10.73
2019-03-09T08:30:18.475Z,10.88
2019-03-09T08:32:48.981Z,11.03
2019-03-09T08:35:19.950Z,11.13
2019-03-09T08:37:51.407Z,11.34
2019-03-09T08:40:22.064Z,11.71
2019-03-09T08:42:52.574Z,12.07
2019-03-09T08:45:23.142Z,12.20
2019-03-09T08:47:53.591Z,12.33
2019-03-09T08:50:43.483Z,12.42
2019-03-09T08:53:13.906Z,12.50
2019-03-09T08:55:44.351Z,12.64
2019-03-09T08:58:34.233Z,12.53
2019-03-09T09:01:04.852Z,12.86
2019-03-09T09:03:35.359Z,12.81
2019-03-09T09:06:05.816Z,12.68
2019-03-09T09:08:36.299Z,12.82
2019-03-09T09:14:28.861Z,12.97
2019-03-09T09:16:59.376Z,13.00
2019-03-09T09:19:29.988Z,12.83
2019-03-09T09:22:00.455Z,12.64
2019-03-09T09:24:30.918Z,12.71
2019-03-09T09:27:01.464Z,12.73
2019-03-09T09:29:31.929Z,12.48
2019-03-09T09:34:53.940Z,12.77
2019-03-09T09:37:24.382Z,12.84
2019-03-09T09:39:54.870Z,13.11
2019-03-09T09:42:25.297Z,13.21
2019-03-09T09:44:55.849Z,13.45
2019-03-09T09:47:26.335Z,13.63
2019-03-09T09:49:56.815Z,13.60
2019-03-09T09:52:46.780Z,13.19
2019-03-09T09:55:17.400Z,13.10
2019-03-09T09:57:47.890Z,13.08
2019-03-09T10:00:37.751Z,13.02
2019-03-09T10:03:08.232Z,13.28
2019-03-09T10:05:58.108Z,13.35
2019-03-09T10:08:28.649Z,13.51
2019-03-09T10:10:59.118Z,13.70
2019-03-09T10:13:29.562Z,13.88
2019-03-09T10:16:19.494Z,14.03
2019-03-09T10:18:50.004Z,14.23
2019-03-09T10:21:22.087Z,14.33
2019-03-09T10:23:52.593Z,14.44
2019-03-09T10:26:42.438Z,14.57
2019-03-09T10:29:14.606Z,14.66
2019-03-09T10:31:46.673Z,14.77
2019-03-09T10:34:17.194Z,14.71
2019-03-09T10:36:47.635Z,14.98
2019-03-09T10:39:18.095Z,14.85
2019-03-09T10:41:48.525Z,14.65
2019-03-09T10:44:38.380Z,14.42
2019-03-09T10:47:08.906Z,14.12
2019-03-09T10:49:39.354Z,14.10
2019-03-09T10:52:09.845Z,14.12
2019-03-09T10:54:40.276Z,14.21
2019-03-09T10:57:30.094Z,14.27
2019-03-09T11:00:00.574Z,14.23
2019-03-09T11:02:31.040Z,14.22
2019-03-09T11:05:01.559Z,14.31
2019-03-09T11:07:32.042Z,14.49
2019-03-09T11:10:04.254Z,14.71
2019-03-09T11:12:34.756Z,14.98
2019-03-09T11:15:24.621Z,15.13
2019-03-09T11:17:55.240Z,15.33
2019-03-09T11:20:25.799Z,15.07
2019-03-09T11:23:16.495Z,14.83
2019-03-09T11:26:06.361Z,15.00
2019-03-09T11:28:56.236Z,14.84
2019-03-09T11:31:26.831Z,14.81
2019-03-09T11:33:57.573Z,14.80
2019-03-09T11:36:28.068Z,14.51
2019-03-09T11:38:58.508Z,14.48
2019-03-09T11:41:48.376Z,14.42
2019-03-09T11:44:18.866Z,14.21
2019-03-09T11:46:49.479Z,14.30
2019-03-09T11:49:19.937Z,14.26
2019-03-09T11:51:50.390Z,13.96
2019-03-09T11:54:40.212Z,13.90
2019-03-09T11:57:10.779Z,14.07
2019-03-09T12:00:00.641Z,14.15
2019-03-09T12:02:38.514Z,14.03
2019-03-09T12:05:22.797Z,13.78
2019-03-09T12:07:53.428Z,14.08
2019-03-09T12:10:43.253Z,14.07
2019-03-09T12:13:33.134Z,14.22
2019-03-09T12:16:03.759Z,14.23
2019-03-09T12:18:34.221Z,14.28
2019-03-09T12:21:24.077Z,14.44
2019-03-09T12:23:54.541Z,13.86
2019-03-09T12:26:25.054Z,13.83
2019-03-09T12:28:55.609Z,13.76
2019-03-09T12:31:26.069Z,13.85
2019-03-09T12:33:56.520Z,13.76
2019-03-09T12:36:46.347Z,13.86
2019-03-09T12:39:16.803Z,14.06
2019-03-09T12:41:47.294Z,13.92
2019-03-09T12:44:37.178Z,14.11
2019-03-09T12:47:07.617Z,14.21
2019-03-09T12:49:38.211Z,14.33
2019-03-09T12:52:08.731Z,14.19
2019-03-09T12:54:58.631Z,14.04
2019-03-09T12:57:48.510Z,13.99
2019-03-09T13:00:19.150Z,14.33
2019-03-09T13:02:49.680Z,14.78
2019-03-09T13:05:20.302Z,15.11
2019-03-09T13:07:50.929Z,15.42
2019-03-09T13:10:23.079Z,15.12
2019-03-09T13:12:53.667Z,14.68
2019-03-09T13:15:25.795Z,15.03
2019-03-09T13:17:56.256Z,15.05
2019-03-09T13:20:26.701Z,14.57
2019-03-09T13:22:57.261Z,14.80
2019-03-09T13:25:47.098Z,14.94
2019-03-09T13:28:17.591Z,14.95
2019-03-09T13:30:48.259Z,15.20
2019-03-09T13:33:38.076Z,15.17
2019-03-09T13:36:09.122Z,15.14
2019-03-09T13:38:39.606Z,15.51
2019-03-09T13:41:11.692Z,15.48
2019-03-09T13:43:42.142Z,15.91
2019-03-09T13:46:12.596Z,15.58
2019-03-09T13:48:43.036Z,15.62
2019-03-09T13:51:32.920Z,15.53
2019-03-09T13:54:03.319Z,15.11
2019-03-09T13:56:33.796Z,14.99
2019-03-09T13:59:23.611Z,14.98
2019-03-09T14:01:54.080Z,15.29
2019-03-09T14:04:43.929Z,15.64
2019-03-09T14:07:14.469Z,15.36
2019-03-09T14:09:44.891Z,15.17
2019-03-09T14:12:34.773Z,14.98
2019-03-09T14:15:05.342Z,14.89
2019-03-09T14:17:35.788Z,15.05
2019-03-09T14:20:25.612Z,15.13
2019-03-09T14:22:56.131Z,15.43
2019-03-09T14:25:26.559Z,15.92
2019-03-09T14:27:57.153Z,16.50
2019-03-09T14:30:46.973Z,16.82
2019-03-09T14:33:17.527Z,17.04
2019-03-09T14:35:48.038Z,16.86
2019-03-09T14:38:18.488Z,16.99
2019-03-09T14:40:49.009Z,17.45
2019-03-09T14:43:19.508Z,16.86
2019-03-09T14:46:09.364Z,17.18
2019-03-09T14:48:59.229Z,18.05
2019-03-09T14:51:29.672Z,18.07
2019-03-09T14:54:11.571Z,18.53
2019-03-09T14:56:44.375Z,18.05
2019-03-09T14:59:34.267Z,18.25
2019-03-09T15:02:04.679Z,17.69
2019-03-09T15:04:35.208Z,18.37
2019-03-09T15:07:07.883Z,18.89
2019-03-09T15:09:38.331Z,18.85
2019-03-09T15:12:08.809Z,18.45
2019-03-09T15:14:58.677Z,18.02
2019-03-09T15:17:29.105Z,18.18
2019-03-09T15:19:59.576Z,17.66
2019-03-09T15:23:08.448Z,17.38
2019-03-09T15:25:39.160Z,16.78
2019-03-09T15:28:09.708Z,16.78
2019-03-09T15:30:59.734Z,17.31
2019-03-09T15:33:30.304Z,17.04
2019-03-09T15:36:01.723Z,17.22
2019-03-09T15:38:32.142Z,17.17
2019-03-09T15:41:21.998Z,16.37
2019-03-09T15:43:52.497Z,15.61
2019-03-09T15:46:22.994Z,15.19
2019-03-09T15:48:53.503Z,14.72
2019-03-09T15:51:24.064Z,14.59
2019-03-09T15:54:13.988Z,14.99
2019-03-09T15:56:44.462Z,15.58
2019-03-09T15:59:34.309Z,15.63
2019-03-09T16:02:24.157Z,15.56
2019-03-09T16:05:14.018Z,15.68
2019-03-09T16:07:44.487Z,14.96
2019-03-09T16:10:15.461Z,14.47
2019-03-09T16:12:46.026Z,14.21
2019-03-09T16:15:16.437Z,14.01
2019-03-09T16:18:06.319Z,13.80
2019-03-09T16:20:36.743Z,13.63
2019-03-09T16:23:07.268Z,13.60
2019-03-09T16:25:37.696Z,13.63
2019-03-09T16:28:27.586Z,13.47
2019-03-09T16:30:58.062Z,13.42
2019-03-09T16:33:28.520Z,13.40
2019-03-09T16:36:18.425Z,13.37
2019-03-09T16:38:48.858Z,13.36
2019-03-09T16:41:38.725Z,13.26
2019-03-09T16:44:09.210Z,13.18
2019-03-09T16:46:39.663Z,13.16
2019-03-09T16:49:29.512Z,13.11
2019-03-09T16:52:01.626Z,13.07
2019-03-09T16:54:51.530Z,13.00
2019-03-09T16:57:21.978Z,12.97
2019-03-09T16:59:52.834Z,12.99
2019-03-09T17:02:27.966Z,12.89
2019-03-09T17:05:07.320Z,12.88
2019-03-09T17:07:37.876Z,12.85
2019-03-09T17:10:08.527Z,12.77
2019-03-09T17:12:39.123Z,12.80
2019-03-09T17:15:10.622Z,12.82
2019-03-09T17:17:41.139Z,12.80
2019-03-09T17:20:11.935Z,12.83
2019-03-09T17:22:42.791Z,12.79
2019-03-09T17:28:23.207Z,12.84
2019-03-09T17:30:53.738Z,12.82
2019-03-09T17:33:43.681Z,12.78
2019-03-09T17:36:14.118Z,12.74
2019-03-09T17:38:44.694Z,12.76
2019-03-09T17:41:34.597Z,12.74
2019-03-09T17:44:05.094Z,12.71
2019-03-09T17:46:54.936Z,12.64
2019-03-09T17:49:25.601Z,12.53
2019-03-09T17:52:15.529Z,12.39
2019-03-09T17:54:46.065Z,12.30
2019-03-09T17:57:18.134Z,12.19
2019-03-09T17:59:48.642Z,12.15
2019-03-09T18:02:38.541Z,12.03
2019-03-09T18:05:10.744Z,11.94
2019-03-09T18:07:41.277Z,11.90
2019-03-09T18:10:34.653Z,11.81
2019-03-09T18:13:05.293Z,11.75
2019-03-09T18:15:35.819Z,11.70
2019-03-09T18:18:06.545Z,11.64
2019-03-09T18:20:37.034Z,11.68
2019-03-09T18:23:07.544Z,11.63
2019-03-09T18:25:57.344Z,11.54
2019-03-09T18:28:27.864Z,11.52
2019-03-09T18:30:59.954Z,11.58
2019-03-09T18:33:30.452Z,11.49
2019-03-09T18:36:20.326Z,11.38
2019-03-09T18:38:50.860Z,11.23
2019-03-09T18:41:21.352Z,11.12
2019-03-09T18:43:51.899Z,11.03
2019-03-09T18:46:41.721Z,11.03
2019-03-09T18:49:12.221Z,11.02
2019-03-09T18:51:42.741Z,11.06
2019-03-09T18:54:13.285Z,11.00
2019-03-09T18:56:43.778Z,10.91
2019-03-09T18:59:14.352Z,10.87
2019-03-09T19:01:46.851Z,10.85
2019-03-09T19:04:18.011Z,10.75
2019-03-09T19:06:48.606Z,10.75
2019-03-09T19:09:19.136Z,10.70
2019-03-09T19:11:50.854Z,10.68
2019-03-09T19:14:21.375Z,10.69
2019-03-09T19:16:53.469Z,10.67
2019-03-09T19:19:24.042Z,10.66
2019-03-09T19:21:54.538Z,10.58
2019-03-09T19:24:44.404Z,10.55
2019-03-09T19:27:14.938Z,10.55
2019-03-09T19:29:45.373Z,10.49
2019-03-09T19:32:15.882Z,10.53
2019-03-09T19:35:06.484Z,10.44
2019-03-09T19:37:37.026Z,10.43
2019-03-09T19:40:08.562Z,10.39
2019-03-09T19:42:39.002Z,10.29
2019-03-09T19:45:10.846Z,10.25
2019-03-09T19:47:41.290Z,10.16
2019-03-09T19:50:31.158Z,10.14
2019-03-09T19:53:01.637Z,10.14
2019-03-09T19:55:32.093Z,10.10
2019-03-09T19:58:21.957Z,10.11
2019-03-09T20:00:52.609Z,10.11
2019-03-09T20:03:42.459Z,10.16
2019-03-09T20:06:14.592Z,10.14
2019-03-09T20:08:45.196Z,10.16
2019-03-09T20:11:15.672Z,10.05
2019-03-09T20:13:46.102Z,10.02
2019-03-09T20:16:35.993Z,10.09
2019-03-09T20:19:25.901Z,10.05
2019-03-09T20:21:56.565Z,10.06
2019-03-09T20:24:28.049Z,10.06
2019-03-09T20:26:58.531Z,10.05
2019-03-09T20:29:48.431Z,10.04
2019-03-09T20:32:18.872Z,10.04
2019-03-09T20:35:08.887Z,10.02
2019-03-09T20:37:39.366Z,10.13
2019-03-09T20:40:11.721Z,10.12
2019-03-09T20:42:42.163Z,10.11
2019-03-09T20:45:15.804Z,10.09
2019-03-09T20:47:46.382Z,10.19
2019-03-09T20:50:36.252Z,10.35
2019-03-09T20:53:06.671Z,10.49
2019-03-09T20:55:37.162Z,10.61
2019-03-09T20:58:26.995Z,10.61
2019-03-09T21:00:57.528Z,10.79
2019-03-09T21:03:27.978Z,10.79
2019-03-09T21:06:17.943Z,10.96
2019-03-09T21:08:48.628Z,11.07
2019-03-09T21:11:20.839Z,11.16
2019-03-09T21:13:51.439Z,11.21
2019-03-09T21:16:21.901Z,11.37
2019-03-09T21:18:52.427Z,11.42
2019-03-09T21:21:22.941Z,11.47
2019-03-09T21:23:53.435Z,11.58
2019-03-09T21:26:24.016Z,11.56
2019-03-09T21:28:54.475Z,11.56
2019-03-09T21:31:24.959Z,11.54
2019-03-09T21:33:55.459Z,11.51
2019-03-09T21:36:45.336Z,11.64
2019-03-09T21:39:15.781Z,11.69
2019-03-09T21:41:46.261Z,11.65
2019-03-09T21:44:16.778Z,11.64
2019-03-09T21:46:47.273Z,11.80
2019-03-09T21:49:17.821Z,11.81
2019-03-09T21:51:48.296Z,11.72
2019-03-09T21:54:18.849Z,11.64
2019-03-09T21:56:49.384Z,11.80
2019-03-09T21:59:39.260Z,11.89
2019-03-09T22:02:29.162Z,11.86
2019-03-09T22:04:59.655Z,11.88
2019-03-09T22:07:30.324Z,11.84
2019-03-09T22:10:00.871Z,11.89
2019-03-09T22:12:31.369Z,11.88
2019-03-09T22:15:01.911Z,11.90
2019-03-09T22:17:51.822Z,11.97
2019-03-09T22:20:22.375Z,12.02
2019-03-09T22:22:52.969Z,11.96
2019-03-09T22:25:23.474Z,12.08
2019-03-09T22:27:54.019Z,12.05
2019-03-09T22:30:24.508Z,11.98
2019-03-09T22:32:55.085Z,11.95
2019-03-09T22:35:25.531Z,12.00
2019-03-09T22:37:56.093Z,12.12
2019-03-09T22:40:26.544Z,12.16
2019-03-09T22:42:57.020Z,12.20
2019-03-09T22:45:27.483Z,12.29
2019-03-09T22:47:58.039Z,12.26
2019-03-09T22:50:28.471Z,12.27
2019-03-09T22:52:58.995Z,12.35
2019-03-09T22:55:29.509Z,12.42
2019-03-09T22:58:00.015Z,12.42
2019-03-09T23:03:46.881Z,12.40
2019-03-09T23:06:17.412Z,12.33
2019-03-09T23:08:48.012Z,12.33
2019-03-09T23:11:18.468Z,12.31
2019-03-09T23:13:48.900Z,12.30
2019-03-09T23:16:19.371Z,12.43
2019-03-09T23:18:49.852Z,12.53
2019-03-09T23:21:39.781Z,12.52
2019-03-09T23:24:10.479Z,12.51
2019-03-09T23:27:00.372Z,12.52
2019-03-09T23:29:30.884Z,12.53
2019-03-09T23:32:20.780Z,12.58
2019-03-09T23:34:51.374Z,12.54
2019-03-09T23:37:23.504Z,12.60
2019-03-09T23:39:54.248Z,12.68
2019-03-09T23:42:24.705Z,12.68
2019-03-09T23:44:55.164Z,12.66
2019-03-09T23:47:25.603Z,12.63
2019-03-09T23:49:56.096Z,12.67
2019-03-09T23:52:26.647Z,12.76
2019-03-09T23:54:57.137Z,12.78
2019-03-09T23:57:27.594Z,12.76
2019-03-09T23:59:58.089Z,12.80
